sensor_id;sensor_type;location;lat;lon;timestamp;pressure;altitude;pressure_sealevel;temperature;humidity
55538;BME280;41383;51.418;7.286;2022-10-13T00:00:25;100292.69;;;11.66;79.78
55538;BME280;41383;51.418;7.286;2022-10-13T00:02:50;100296.00;;;11.68;79.40
55538;BME280;41383;51.418;7.286;2022-10-13T00:05:16;100299.91;;;11.77;79.14
55538;BME280;41383;51.418;7.286;2022-10-13T00:07:41;100295.81;;;11.80;79.01
55538;BME280;41383;51.418;7.286;2022-10-13T00:10:07;100296.06;;;11.73;79.39
55538;BME280;41383;51.418;7.286;2022-10-13T00:12:36;100294.47;;;11.77;79.13
55538;BME280;41383;51.418;7.286;2022-10-13T00:15:05;100293.91;;;11.81;79.31
55538;BME280;41383;51.418;7.286;2022-10-13T00:17:31;100293.72;;;11.87;78.85
55538;BME280;41383;51.418;7.286;2022-10-13T00:19:56;100296.09;;;11.78;78.85
55538;BME280;41383;51.418;7.286;2022-10-13T00:22:21;100292.59;;;11.83;78.72
55538;BME280;41383;51.418;7.286;2022-10-13T00:24:50;100291.75;;;11.83;79.34
55538;BME280;41383;51.418;7.286;2022-10-13T00:27:16;100284.94;;;11.85;79.28
55538;BME280;41383;51.418;7.286;2022-10-13T00:29:41;100281.34;;;11.79;79.17
55538;BME280;41383;51.418;7.286;2022-10-13T00:32:07;100292.28;;;11.79;79.51
55538;BME280;41383;51.418;7.286;2022-10-13T00:34:32;100284.88;;;11.75;79.72
55538;BME280;41383;51.418;7.286;2022-10-13T00:36:57;100278.28;;;11.71;79.94
55538;BME280;41383;51.418;7.286;2022-10-13T00:39:22;100281.88;;;11.76;79.42
55538;BME280;41383;51.418;7.286;2022-10-13T00:41:48;100273.41;;;11.78;79.77
55538;BME280;41383;51.418;7.286;2022-10-13T00:47:15;100275.38;;;11.88;79.14
55538;BME280;41383;51.418;7.286;2022-10-13T00:49:41;100273.50;;;11.88;79.03
55538;BME280;41383;51.418;7.286;2022-10-13T00:52:06;100279.50;;;11.85;79.46
55538;BME280;41383;51.418;7.286;2022-10-13T00:54:31;100274.22;;;11.78;79.36
55538;BME280;41383;51.418;7.286;2022-10-13T00:56:58;100274.44;;;11.72;79.80
55538;BME280;41383;51.418;7.286;2022-10-13T00:59:25;100278.06;;;11.77;79.30
55538;BME280;41383;51.418;7.286;2022-10-13T01:01:54;100276.31;;;11.66;79.97
55538;BME280;41383;51.418;7.286;2022-10-13T01:04:22;100274.94;;;11.63;80.01
55538;BME280;41383;51.418;7.286;2022-10-13T01:06:49;100267.84;;;11.67;80.27
55538;BME280;41383;51.418;7.286;2022-10-13T01:09:16;100280.78;;;11.77;79.91
55538;BME280;41383;51.418;7.286;2022-10-13T01:14:24;100260.75;;;11.66;80.38
55538;BME280;41383;51.418;7.286;2022-10-13T01:17:03;100264.34;;;11.72;80.15
55538;BME280;41383;51.418;7.286;2022-10-13T01:19:54;100247.09;;;11.66;80.00
55538;BME280;41383;51.418;7.286;2022-10-13T01:25:16;100237.47;;;11.59;80.42
55538;BME280;41383;51.418;7.286;2022-10-13T01:28:14;100229.84;;;11.61;80.30
55538;BME280;41383;51.418;7.286;2022-10-13T01:31:11;100227.59;;;11.52;80.75
55538;BME280;41383;51.418;7.286;2022-10-13T01:33:46;100231.00;;;11.70;80.61
55538;BME280;41383;51.418;7.286;2022-10-13T01:39:34;100237.88;;;11.73;80.05
55538;BME280;41383;51.418;7.286;2022-10-13T01:42:07;100232.13;;;11.74;80.40
55538;BME280;41383;51.418;7.286;2022-10-13T01:44:40;100223.34;;;11.67;80.40
55538;BME280;41383;51.418;7.286;2022-10-13T01:47:08;100218.25;;;11.81;80.08
55538;BME280;41383;51.418;7.286;2022-10-13T01:49:35;100226.16;;;11.77;80.33
55538;BME280;41383;51.418;7.286;2022-10-13T01:52:08;100219.00;;;11.71;80.49
55538;BME280;41383;51.418;7.286;2022-10-13T01:54:34;100224.47;;;11.71;80.82
55538;BME280;41383;51.418;7.286;2022-10-13T01:57:00;100223.91;;;11.69;80.96
55538;BME280;41383;51.418;7.286;2022-10-13T01:59:28;100214.59;;;11.65;80.97
55538;BME280;41383;51.418;7.286;2022-10-13T02:02:14;100215.72;;;11.69;80.73
55538;BME280;41383;51.418;7.286;2022-10-13T02:07:37;100212.63;;;11.60;81.37
55538;BME280;41383;51.418;7.286;2022-10-13T02:10:26;100208.00;;;11.61;81.21
55538;BME280;41383;51.418;7.286;2022-10-13T02:13:02;100212.38;;;11.62;81.18
55538;BME280;41383;51.418;7.286;2022-10-13T02:15:39;100210.75;;;11.66;81.01
55538;BME280;41383;51.418;7.286;2022-10-13T02:18:06;100209.94;;;11.65;81.24
55538;BME280;41383;51.418;7.286;2022-10-13T02:20:31;100210.50;;;11.67;80.97
55538;BME280;41383;51.418;7.286;2022-10-13T02:23:01;100205.84;;;11.63;81.48
55538;BME280;41383;51.418;7.286;2022-10-13T02:25:27;100215.34;;;11.55;81.54
55538;BME280;41383;51.418;7.286;2022-10-13T02:27:53;100219.22;;;11.64;81.50
55538;BME280;41383;51.418;7.286;2022-10-13T02:30:25;100213.75;;;11.64;81.33
55538;BME280;41383;51.418;7.286;2022-10-13T02:32:50;100208.28;;;11.64;81.59
55538;BME280;41383;51.418;7.286;2022-10-13T02:35:16;100204.47;;;11.65;81.45
55538;BME280;41383;51.418;7.286;2022-10-13T02:37:41;100201.97;;;11.59;81.70
55538;BME280;41383;51.418;7.286;2022-10-13T02:40:07;100208.03;;;11.66;81.56
55538;BME280;41383;51.418;7.286;2022-10-13T02:42:32;100206.44;;;11.70;81.50
55538;BME280;41383;51.418;7.286;2022-10-13T02:44:57;100210.00;;;11.71;80.89
55538;BME280;41383;51.418;7.286;2022-10-13T02:47:23;100209.16;;;11.70;81.48
55538;BME280;41383;51.418;7.286;2022-10-13T02:49:48;100201.75;;;11.65;81.40
55538;BME280;41383;51.418;7.286;2022-10-13T02:52:13;100205.66;;;11.75;81.35
55538;BME280;41383;51.418;7.286;2022-10-13T02:54:39;100206.44;;;11.70;81.51
55538;BME280;41383;51.418;7.286;2022-10-13T02:57:04;100211.63;;;11.72;81.43
55538;BME280;41383;51.418;7.286;2022-10-13T02:59:29;100217.34;;;11.70;81.73
55538;BME280;41383;51.418;7.286;2022-10-13T03:01:54;100207.56;;;11.74;81.43
55538;BME280;41383;51.418;7.286;2022-10-13T03:04:20;100209.78;;;11.83;81.12
55538;BME280;41383;51.418;7.286;2022-10-13T03:06:46;100202.63;;;11.71;81.36
55538;BME280;41383;51.418;7.286;2022-10-13T03:09:11;100208.66;;;11.73;81.32
55538;BME280;41383;51.418;7.286;2022-10-13T03:11:37;100210.75;;;11.66;81.64
55538;BME280;41383;51.418;7.286;2022-10-13T03:14:02;100202.56;;;11.66;81.77
55538;BME280;41383;51.418;7.286;2022-10-13T03:16:27;100198.78;;;11.72;81.27
55538;BME280;41383;51.418;7.286;2022-10-13T03:18:53;100205.94;;;11.78;81.40
55538;BME280;41383;51.418;7.286;2022-10-13T03:21:18;100196.91;;;11.78;81.47
55538;BME280;41383;51.418;7.286;2022-10-13T03:23:44;100193.34;;;11.72;81.29
55538;BME280;41383;51.418;7.286;2022-10-13T03:26:09;100189.44;;;11.63;81.84
55538;BME280;41383;51.418;7.286;2022-10-13T03:28:34;100192.22;;;11.68;81.60
55538;BME280;41383;51.418;7.286;2022-10-13T03:31:05;100185.69;;;11.69;81.49
55538;BME280;41383;51.418;7.286;2022-10-13T03:33:30;100181.28;;;11.68;81.58
55538;BME280;41383;51.418;7.286;2022-10-13T03:36:00;100190.31;;;11.68;81.78
55538;BME280;41383;51.418;7.286;2022-10-13T03:38:27;100186.25;;;11.71;81.52
55538;BME280;41383;51.418;7.286;2022-10-13T03:40:53;100192.22;;;11.68;81.61
55538;BME280;41383;51.418;7.286;2022-10-13T03:43:18;100183.50;;;11.71;81.52
55538;BME280;41383;51.418;7.286;2022-10-13T03:45:43;100191.22;;;11.79;81.63
55538;BME280;41383;51.418;7.286;2022-10-13T03:48:08;100186.53;;;11.75;81.41
55538;BME280;41383;51.418;7.286;2022-10-13T03:50:34;100187.97;;;11.88;80.77
55538;BME280;41383;51.418;7.286;2022-10-13T03:52:59;100176.47;;;11.86;81.31
55538;BME280;41383;51.418;7.286;2022-10-13T03:55:24;100173.44;;;11.77;81.55
55538;BME280;41383;51.418;7.286;2022-10-13T03:57:50;100171.53;;;11.77;81.58
55538;BME280;41383;51.418;7.286;2022-10-13T04:00:15;100163.91;;;11.79;81.34
55538;BME280;41383;51.418;7.286;2022-10-13T04:02:41;100170.44;;;11.78;81.47
55538;BME280;41383;51.418;7.286;2022-10-13T04:05:07;100170.69;;;11.77;81.51
55538;BME280;41383;51.418;7.286;2022-10-13T04:07:32;100161.69;;;11.76;81.50
55538;BME280;41383;51.418;7.286;2022-10-13T04:09:57;100150.25;;;11.79;81.38
55538;BME280;41383;51.418;7.286;2022-10-13T04:12:22;100159.00;;;11.87;81.00
55538;BME280;41383;51.418;7.286;2022-10-13T04:14:48;100157.13;;;11.87;81.25
55538;BME280;41383;51.418;7.286;2022-10-13T04:17:13;100151.09;;;11.90;81.00
55538;BME280;41383;51.418;7.286;2022-10-13T04:19:38;100159.88;;;11.93;81.16
55538;BME280;41383;51.418;7.286;2022-10-13T04:22:03;100153.06;;;11.95;81.06
55538;BME280;41383;51.418;7.286;2022-10-13T04:24:29;100144.34;;;12.03;80.49
55538;BME280;41383;51.418;7.286;2022-10-13T04:26:54;100136.72;;;12.06;80.04
55538;BME280;41383;51.418;7.286;2022-10-13T04:29:19;100139.94;;;11.97;80.85
55538;BME280;41383;51.418;7.286;2022-10-13T04:31:45;100145.69;;;11.96;80.53
55538;BME280;41383;51.418;7.286;2022-10-13T04:34:10;100141.56;;;11.93;80.48
55538;BME280;41383;51.418;7.286;2022-10-13T04:36:36;100139.69;;;12.04;80.58
55538;BME280;41383;51.418;7.286;2022-10-13T04:39:02;100141.09;;;12.07;80.02
55538;BME280;41383;51.418;7.286;2022-10-13T04:41:28;100141.63;;;12.03;80.43
55538;BME280;41383;51.418;7.286;2022-10-13T04:43:53;100138.28;;;11.96;80.61
55538;BME280;41383;51.418;7.286;2022-10-13T04:46:25;100131.19;;;11.95;80.63
55538;BME280;41383;51.418;7.286;2022-10-13T04:48:51;100131.72;;;11.92;80.70
55538;BME280;41383;51.418;7.286;2022-10-13T04:51:19;100129.28;;;11.96;80.22
55538;BME280;41383;51.418;7.286;2022-10-13T04:53:45;100133.94;;;12.00;80.02
55538;BME280;41383;51.418;7.286;2022-10-13T04:56:15;100130.13;;;12.01;80.29
55538;BME280;41383;51.418;7.286;2022-10-13T04:58:42;100122.03;;;12.17;79.73
55538;BME280;41383;51.418;7.286;2022-10-13T05:01:13;100127.50;;;12.12;79.93
55538;BME280;41383;51.418;7.286;2022-10-13T05:03:39;100127.97;;;12.09;79.85
55538;BME280;41383;51.418;7.286;2022-10-13T05:06:04;100125.25;;;12.09;79.69
55538;BME280;41383;51.418;7.286;2022-10-13T05:08:30;100115.66;;;12.06;79.90
55538;BME280;41383;51.418;7.286;2022-10-13T05:11:01;100117.31;;;12.07;79.66
55538;BME280;41383;51.418;7.286;2022-10-13T05:13:28;100123.13;;;12.16;79.17
55538;BME280;41383;51.418;7.286;2022-10-13T05:15:53;100117.34;;;12.12;79.91
55538;BME280;41383;51.418;7.286;2022-10-13T05:18:19;100114.03;;;12.10;79.51
55538;BME280;41383;51.418;7.286;2022-10-13T05:20:44;100119.31;;;12.17;79.51
55538;BME280;41383;51.418;7.286;2022-10-13T05:23:11;100124.41;;;12.08;79.48
55538;BME280;41383;51.418;7.286;2022-10-13T05:25:37;100120.97;;;12.18;79.20
55538;BME280;41383;51.418;7.286;2022-10-13T05:28:03;100114.63;;;12.12;79.13
55538;BME280;41383;51.418;7.286;2022-10-13T05:30:29;100113.75;;;12.01;79.66
55538;BME280;41383;51.418;7.286;2022-10-13T05:32:55;100120.97;;;12.18;79.36
55538;BME280;41383;51.418;7.286;2022-10-13T05:35:21;100122.88;;;12.23;78.95
55538;BME280;41383;51.418;7.286;2022-10-13T05:37:46;100117.41;;;12.18;78.94
55538;BME280;41383;51.418;7.286;2022-10-13T05:40:12;100101.81;;;12.18;78.71
55538;BME280;41383;51.418;7.286;2022-10-13T05:42:37;100106.63;;;12.00;78.95
55538;BME280;41383;51.418;7.286;2022-10-13T05:45:03;100114.25;;;11.93;79.43
55538;BME280;41383;51.418;7.286;2022-10-13T05:47:28;100111.28;;;12.00;79.37
55538;BME280;41383;51.418;7.286;2022-10-13T05:49:54;100112.09;;;12.00;79.24
55538;BME280;41383;51.418;7.286;2022-10-13T05:52:21;100100.09;;;12.07;78.65
55538;BME280;41383;51.418;7.286;2022-10-13T05:54:52;100113.00;;;12.11;78.39
55538;BME280;41383;51.418;7.286;2022-10-13T05:57:27;100106.63;;;12.00;79.19
55538;BME280;41383;51.418;7.286;2022-10-13T06:00:07;100108.00;;;12.03;78.66
55538;BME280;41383;51.418;7.286;2022-10-13T06:02:40;100111.56;;;12.09;78.75
55538;BME280;41383;51.418;7.286;2022-10-13T06:05:12;100106.91;;;12.04;78.80
55538;BME280;41383;51.418;7.286;2022-10-13T06:07:39;100095.69;;;12.00;78.50
55538;BME280;41383;51.418;7.286;2022-10-13T06:10:04;100089.72;;;12.03;78.23
55538;BME280;41383;51.418;7.286;2022-10-13T06:12:30;100082.31;;;11.99;78.70
55538;BME280;41383;51.418;7.286;2022-10-13T06:14:55;100085.03;;;12.04;78.36
55538;BME280;41383;51.418;7.286;2022-10-13T06:17:20;100083.97;;;12.05;78.25
55538;BME280;41383;51.418;7.286;2022-10-13T06:19:46;100076.59;;;12.06;78.15
55538;BME280;41383;51.418;7.286;2022-10-13T06:22:11;100085.34;;;12.08;78.17
55538;BME280;41383;51.418;7.286;2022-10-13T06:24:36;100072.31;;;12.20;77.34
55538;BME280;41383;51.418;7.286;2022-10-13T06:27:01;100081.50;;;12.09;77.88
55538;BME280;41383;51.418;7.286;2022-10-13T06:29:27;100075.78;;;12.05;77.97
55538;BME280;41383;51.418;7.286;2022-10-13T06:31:52;100080.66;;;11.98;78.32
55538;BME280;41383;51.418;7.286;2022-10-13T06:34:17;100083.75;;;12.12;77.75
55538;BME280;41383;51.418;7.286;2022-10-13T06:36:42;100090.84;;;12.13;78.05
55538;BME280;41383;51.418;7.286;2022-10-13T06:39:08;100077.22;;;12.23;77.51
55538;BME280;41383;51.418;7.286;2022-10-13T06:41:34;100076.94;;;12.20;77.74
55538;BME280;41383;51.418;7.286;2022-10-13T06:43:59;100081.03;;;12.17;77.40
55538;BME280;41383;51.418;7.286;2022-10-13T06:46:24;100076.59;;;12.06;78.06
55538;BME280;41383;51.418;7.286;2022-10-13T06:48:50;100077.78;;;12.20;77.49
55538;BME280;41383;51.418;7.286;2022-10-13T06:51:16;100079.63;;;12.09;77.78
55538;BME280;41383;51.418;7.286;2022-10-13T06:53:41;100074.66;;;12.01;78.37
55538;BME280;41383;51.418;7.286;2022-10-13T06:56:07;100069.47;;;12.05;78.29
55538;BME280;41383;51.418;7.286;2022-10-13T06:58:34;100066.53;;;12.17;77.97
55538;BME280;41383;51.418;7.286;2022-10-13T07:00:59;100079.94;;;12.13;78.26
55538;BME280;41383;51.418;7.286;2022-10-13T07:03:24;100088.72;;;12.20;77.87
55538;BME280;41383;51.418;7.286;2022-10-13T07:05:50;100072.56;;;12.13;78.07
55538;BME280;41383;51.418;7.286;2022-10-13T07:08:15;100083.41;;;12.08;78.14
55538;BME280;41383;51.418;7.286;2022-10-13T07:10:41;100092.00;;;12.22;78.07
55538;BME280;41383;51.418;7.286;2022-10-13T07:13:06;100085.16;;;12.25;77.97
55538;BME280;41383;51.418;7.286;2022-10-13T07:15:32;100084.84;;;12.11;78.54
55538;BME280;41383;51.418;7.286;2022-10-13T07:17:58;100064.56;;;12.01;79.00
55538;BME280;41383;51.418;7.286;2022-10-13T07:20:23;100072.81;;;12.12;78.98
55538;BME280;41383;51.418;7.286;2022-10-13T07:22:52;100078.63;;;12.26;78.54
55538;BME280;41383;51.418;7.286;2022-10-13T07:25:17;100071.50;;;12.20;78.49
55538;BME280;41383;51.418;7.286;2022-10-13T07:27:42;100073.94;;;12.21;78.61
55538;BME280;41383;51.418;7.286;2022-10-13T07:30:08;100078.63;;;12.31;78.52
55538;BME280;41383;51.418;7.286;2022-10-13T07:32:34;100078.66;;;12.36;78.42
55538;BME280;41383;51.418;7.286;2022-10-13T07:35:00;100076.19;;;12.40;78.20
55538;BME280;41383;51.418;7.286;2022-10-13T07:37:25;100081.13;;;12.48;78.31
55538;BME280;41383;51.418;7.286;2022-10-13T07:39:51;100080.84;;;12.55;77.88
55538;BME280;41383;51.418;7.286;2022-10-13T07:42:17;100080.06;;;12.60;77.42
55538;BME280;41383;51.418;7.286;2022-10-13T07:44:42;100080.34;;;12.74;77.05
55538;BME280;41383;51.418;7.286;2022-10-13T07:47:08;100073.50;;;12.82;77.65
55538;BME280;41383;51.418;7.286;2022-10-13T07:49:33;100074.63;;;12.86;77.47
55538;BME280;41383;51.418;7.286;2022-10-13T07:51:59;100067.50;;;12.85;77.09
55538;BME280;41383;51.418;7.286;2022-10-13T07:54:24;100073.81;;;12.91;76.90
55538;BME280;41383;51.418;7.286;2022-10-13T07:56:50;100080.63;;;12.88;76.72
55538;BME280;41383;51.418;7.286;2022-10-13T07:59:16;100077.34;;;12.86;76.89
55538;BME280;41383;51.418;7.286;2022-10-13T08:01:42;100085.84;;;12.84;77.38
55538;BME280;41383;51.418;7.286;2022-10-13T08:04:07;100085.84;;;12.84;77.35
55538;BME280;41383;51.418;7.286;2022-10-13T08:06:32;100087.47;;;12.86;77.42
55538;BME280;41383;51.418;7.286;2022-10-13T08:08:57;100073.53;;;12.87;77.14
55538;BME280;41383;51.418;7.286;2022-10-13T08:11:24;100069.41;;;12.84;77.37
55538;BME280;41383;51.418;7.286;2022-10-13T08:13:50;100073.53;;;12.87;77.50
55538;BME280;41383;51.418;7.286;2022-10-13T08:16:17;100078.47;;;13.01;76.80
55538;BME280;41383;51.418;7.286;2022-10-13T08:18:43;100072.97;;;12.90;77.25
55538;BME280;41383;51.418;7.286;2022-10-13T08:21:12;100077.38;;;13.07;77.25
55538;BME280;41383;51.418;7.286;2022-10-13T08:23:38;100080.66;;;13.19;76.56
55538;BME280;41383;51.418;7.286;2022-10-13T08:26:03;100081.19;;;13.16;76.68
55538;BME280;41383;51.418;7.286;2022-10-13T08:28:28;100077.09;;;13.14;76.91
55538;BME280;41383;51.418;7.286;2022-10-13T08:30:57;100075.44;;;13.23;76.69
55538;BME280;41383;51.418;7.286;2022-10-13T08:33:24;100079.81;;;13.29;76.24
55538;BME280;41383;51.418;7.286;2022-10-13T08:35:49;100074.34;;;13.29;76.77
55538;BME280;41383;51.418;7.286;2022-10-13T08:38:15;100087.72;;;13.52;76.00
55538;BME280;41383;51.418;7.286;2022-10-13T08:40:45;100086.59;;;13.74;74.88
55538;BME280;41383;51.418;7.286;2022-10-13T08:43:14;100096.78;;;13.58;75.08
55538;BME280;41383;51.418;7.286;2022-10-13T08:45:40;100082.25;;;13.62;75.43
55538;BME280;41383;51.418;7.286;2022-10-13T08:48:10;100083.91;;;13.69;75.46
55538;BME280;41383;51.418;7.286;2022-10-13T08:50:40;100083.31;;;13.82;75.10
55538;BME280;41383;51.418;7.286;2022-10-13T08:53:13;100084.34;;;13.92;74.84
55538;BME280;41383;51.418;7.286;2022-10-13T08:55:47;100080.75;;;14.07;74.13
55538;BME280;41383;51.418;7.286;2022-10-13T08:58:28;100090.09;;;13.95;74.86
55538;BME280;41383;51.418;7.286;2022-10-13T09:03:28;100084.56;;;14.06;74.59
55538;BME280;41383;51.418;7.286;2022-10-13T09:06:02;100088.44;;;14.05;74.46
55538;BME280;41383;51.418;7.286;2022-10-13T09:08:37;100084.09;;;13.93;74.77
55538;BME280;41383;51.418;7.286;2022-10-13T09:11:03;100078.88;;;13.92;74.91
55538;BME280;41383;51.418;7.286;2022-10-13T09:13:29;100077.78;;;13.93;74.50
55538;BME280;41383;51.418;7.286;2022-10-13T09:15:54;100075.34;;;13.91;74.37
55538;BME280;41383;51.418;7.286;2022-10-13T09:18:27;100073.38;;;13.92;74.74
55538;BME280;41383;51.418;7.286;2022-10-13T09:23:39;100054.38;;;14.21;73.87
55538;BME280;41383;51.418;7.286;2022-10-13T09:26:08;100065.88;;;14.23;73.85
55538;BME280;41383;51.418;7.286;2022-10-13T09:28:39;100055.94;;;14.33;73.92
55538;BME280;41383;51.418;7.286;2022-10-13T09:31:13;100056.66;;;14.49;72.97
55538;BME280;41383;51.418;7.286;2022-10-13T09:33:39;100057.84;;;14.38;73.05
55538;BME280;41383;51.418;7.286;2022-10-13T09:36:07;100058.34;;;14.45;73.33
55538;BME280;41383;51.418;7.286;2022-10-13T09:38:38;100051.19;;;14.49;73.02
55538;BME280;41383;51.418;7.286;2022-10-13T09:41:16;100052.88;;;14.40;73.47
55538;BME280;41383;51.418;7.286;2022-10-13T09:46:27;100054.03;;;14.33;73.19
55538;BME280;41383;51.418;7.286;2022-10-13T09:49:01;100048.00;;;14.26;73.13
55538;BME280;41383;51.418;7.286;2022-10-13T09:51:42;100051.25;;;14.39;73.20
55538;BME280;41383;51.418;7.286;2022-10-13T09:57:04;100055.69;;;14.29;74.02
55538;BME280;41383;51.418;7.286;2022-10-13T09:59:36;100050.16;;;14.40;73.64
55538;BME280;41383;51.418;7.286;2022-10-13T10:02:18;100049.03;;;14.41;73.82
55538;BME280;41383;51.418;7.286;2022-10-13T10:04:45;100043.94;;;14.64;73.27
55538;BME280;41383;51.418;7.286;2022-10-13T10:07:14;100044.78;;;14.64;73.33
55538;BME280;41383;51.418;7.286;2022-10-13T10:09:47;100046.09;;;14.72;73.06
55538;BME280;41383;51.418;7.286;2022-10-13T10:12:20;100036.81;;;14.63;73.05
55538;BME280;41383;51.418;7.286;2022-10-13T10:14:46;100046.22;;;14.51;73.38
55538;BME280;41383;51.418;7.286;2022-10-13T10:17:23;100040.66;;;14.62;73.08
55538;BME280;41383;51.418;7.286;2022-10-13T10:20:33;100039.25;;;14.69;72.71
55538;BME280;41383;51.418;7.286;2022-10-13T10:25:42;100047.28;;;14.55;73.11
55538;BME280;41383;51.418;7.286;2022-10-13T10:36:59;100030.25;;;14.58;73.07
55538;BME280;41383;51.418;7.286;2022-10-13T10:39:35;100020.69;;;14.56;72.81
55538;BME280;41383;51.418;7.286;2022-10-13T10:45:00;100024.75;;;14.64;72.99
55538;BME280;41383;51.418;7.286;2022-10-13T10:47:29;100018.66;;;14.72;72.54
55538;BME280;41383;51.418;7.286;2022-10-13T10:50:02;100016.53;;;14.58;73.07
55538;BME280;41383;51.418;7.286;2022-10-13T10:52:55;100011.84;;;14.64;72.88
55538;BME280;41383;51.418;7.286;2022-10-13T10:55:31;100007.09;;;14.75;72.89
55538;BME280;41383;51.418;7.286;2022-10-13T10:58:43;100008.16;;;14.85;72.65
55538;BME280;41383;51.418;7.286;2022-10-13T11:01:37;100000.63;;;14.96;72.27
55538;BME280;41383;51.418;7.286;2022-10-13T11:04:31;99995.97;;;14.96;71.63
55538;BME280;41383;51.418;7.286;2022-10-13T11:07:00;99995.50;;;15.13;71.35
55538;BME280;41383;51.418;7.286;2022-10-13T11:14:45;99982.94;;;15.37;70.41
55538;BME280;41383;51.418;7.286;2022-10-13T11:17:16;99973.56;;;15.38;71.78
55538;BME280;41383;51.418;7.286;2022-10-13T11:19:42;99973.31;;;15.59;70.40
55538;BME280;41383;51.418;7.286;2022-10-13T11:22:13;99976.41;;;15.76;69.96
55538;BME280;41383;51.418;7.286;2022-10-13T11:24:47;99962.44;;;15.73;70.00
55538;BME280;41383;51.418;7.286;2022-10-13T11:38:01;99960.97;;;15.56;69.33
55538;BME280;41383;51.418;7.286;2022-10-13T11:46:22;99958.84;;;15.72;67.96
55538;BME280;41383;51.418;7.286;2022-10-13T11:51:58;99956.38;;;15.76;68.85
55538;BME280;41383;51.418;7.286;2022-10-13T11:56:56;99950.19;;;15.40;69.45
55538;BME280;41383;51.418;7.286;2022-10-13T11:59:30;99941.84;;;15.70;68.92
55538;BME280;41383;51.418;7.286;2022-10-13T12:01:58;99943.41;;;15.57;69.32
55538;BME280;41383;51.418;7.286;2022-10-13T12:04:26;99948.56;;;15.39;70.38
55538;BME280;41383;51.418;7.286;2022-10-13T12:06:59;99942.66;;;15.27;70.44
55538;BME280;41383;51.418;7.286;2022-10-13T12:09:25;99936.41;;;15.21;70.34
55538;BME280;41383;51.418;7.286;2022-10-13T12:12:03;99944.00;;;15.29;70.24
55538;BME280;41383;51.418;7.286;2022-10-13T12:14:37;99947.94;;;15.23;70.15
55538;BME280;41383;51.418;7.286;2022-10-13T12:17:03;99941.19;;;15.35;70.20
55538;BME280;41383;51.418;7.286;2022-10-13T12:19:30;99946.63;;;15.15;70.23
55538;BME280;41383;51.418;7.286;2022-10-13T12:22:00;99952.41;;;15.14;70.78
55538;BME280;41383;51.418;7.286;2022-10-13T12:24:27;99945.84;;;15.10;70.02
55538;BME280;41383;51.418;7.286;2022-10-13T12:26:53;99945.41;;;15.02;69.94
55538;BME280;41383;51.418;7.286;2022-10-13T12:29:24;99933.81;;;15.05;70.05
55538;BME280;41383;51.418;7.286;2022-10-13T12:31:51;99942.59;;;15.08;70.25
55538;BME280;41383;51.418;7.286;2022-10-13T12:36:52;99937.38;;;15.06;70.49
55538;BME280;41383;51.418;7.286;2022-10-13T12:39:19;99938.16;;;15.12;70.76
55538;BME280;41383;51.418;7.286;2022-10-13T12:41:45;99937.69;;;15.04;71.09
55538;BME280;41383;51.418;7.286;2022-10-13T12:44:14;99943.06;;;14.90;71.53
55538;BME280;41383;51.418;7.286;2022-10-13T12:46:44;99936.66;;;14.95;71.44
55538;BME280;41383;51.418;7.286;2022-10-13T12:49:14;99942.53;;;15.13;71.48
55538;BME280;41383;51.418;7.286;2022-10-13T12:51:41;99943.81;;;14.96;72.06
55538;BME280;41383;51.418;7.286;2022-10-13T12:54:17;99945.50;;;14.92;72.33
55538;BME280;41383;51.418;7.286;2022-10-13T12:56:43;99941.75;;;14.77;72.93
55538;BME280;41383;51.418;7.286;2022-10-13T12:59:15;99947.31;;;15.02;73.22
55538;BME280;41383;51.418;7.286;2022-10-13T13:01:41;99950.78;;;14.83;73.87
55538;BME280;41383;51.418;7.286;2022-10-13T13:06:57;99943.44;;;14.73;75.03
55538;BME280;41383;51.418;7.286;2022-10-13T13:09:33;99949.97;;;14.82;75.71
55538;BME280;41383;51.418;7.286;2022-10-13T13:12:19;99947.22;;;14.82;76.65
55538;BME280;41383;51.418;7.286;2022-10-13T13:14:47;99950.59;;;14.74;77.02
55538;BME280;41383;51.418;7.286;2022-10-13T13:19:50;99951.13;;;14.71;78.34
55538;BME280;41383;51.418;7.286;2022-10-13T13:22:16;99945.88;;;14.75;77.97
55538;BME280;41383;51.418;7.286;2022-10-13T13:24:41;99949.94;;;14.88;78.22
55538;BME280;41383;51.418;7.286;2022-10-13T13:27:37;99952.34;;;14.59;78.94
55538;BME280;41383;51.418;7.286;2022-10-13T13:30:10;99953.44;;;14.58;79.48
55538;BME280;41383;51.418;7.286;2022-10-13T13:32:36;99950.16;;;14.56;79.95
55538;BME280;41383;51.418;7.286;2022-10-13T13:35:01;99958.38;;;14.62;79.99
55538;BME280;41383;51.418;7.286;2022-10-13T13:37:33;99954.72;;;14.71;79.84
55538;BME280;41383;51.418;7.286;2022-10-13T13:39:59;99942.38;;;14.69;79.71
55538;BME280;41383;51.418;7.286;2022-10-13T13:42:27;99950.00;;;14.77;80.18
55538;BME280;41383;51.418;7.286;2022-10-13T13:44:52;99953.09;;;14.70;80.69
55538;BME280;41383;51.418;7.286;2022-10-13T13:47:22;99951.81;;;14.57;80.85
55538;BME280;41383;51.418;7.286;2022-10-13T13:49:50;99941.19;;;14.80;81.38
55538;BME280;41383;51.418;7.286;2022-10-13T13:52:16;99937.31;;;14.87;80.67
55538;BME280;41383;51.418;7.286;2022-10-13T13:54:42;99943.50;;;14.68;81.01
55538;BME280;41383;51.418;7.286;2022-10-13T13:57:09;99944.66;;;14.62;80.94
55538;BME280;41383;51.418;7.286;2022-10-13T13:59:34;99934.13;;;14.74;80.74
55538;BME280;41383;51.418;7.286;2022-10-13T14:02:00;99931.50;;;14.58;81.33
55538;BME280;41383;51.418;7.286;2022-10-13T14:04:25;99924.09;;;14.59;80.93
55538;BME280;41383;51.418;7.286;2022-10-13T14:06:50;99921.16;;;14.50;80.37
55538;BME280;41383;51.418;7.286;2022-10-13T14:09:17;99927.16;;;14.52;80.37
55538;BME280;41383;51.418;7.286;2022-10-13T14:11:42;99914.03;;;14.49;80.60
55538;BME280;41383;51.418;7.286;2022-10-13T14:14:07;99908.47;;;14.54;80.89